createdAt,value
2018-01-14T00:00:18.064Z,98247.55
2018-01-14T00:02:46.320Z,98239.75
2018-01-14T00:05:15.355Z,98252.05
2018-01-14T00:07:43.610Z,98254.73
2018-01-14T00:10:12.672Z,98255.33
2018-01-14T00:12:40.979Z,98245.45
2018-01-14T00:15:09.411Z,98247.03
2018-01-14T00:17:37.727Z,98243.88
2018-01-14T00:20:06.012Z,98244.11
2018-01-14T00:22:36.063Z,98238.27
2018-01-14T00:25:04.534Z,98236.92
2018-01-14T00:27:32.781Z,98242.77
2018-01-14T00:30:01.030Z,98240.11
2018-01-14T00:32:29.296Z,98239.49
2018-01-14T00:34:57.568Z,98244.69
2018-01-14T00:37:26.644Z,98244.58
2018-01-14T00:39:54.896Z,98245.75
2018-01-14T00:42:23.181Z,98245.89
2018-01-14T00:44:51.460Z,98246.83
2018-01-14T00:47:19.723Z,98241.59
2018-01-14T00:49:48.213Z,98245.77
2018-01-14T00:52:16.467Z,98249.78
2018-01-14T00:54:45.485Z,98238.67
2018-01-14T00:57:13.799Z,98246.73
2018-01-14T00:59:42.067Z,98245.77
2018-01-14T01:02:10.392Z,98238.73
2018-01-14T01:04:39.498Z,98242.80
2018-01-14T01:07:08.615Z,98238.53
2018-01-14T01:09:38.684Z,98237.47
2018-01-14T01:12:07.769Z,98233.37
2018-01-14T01:14:36.077Z,98235.57
2018-01-14T01:17:04.310Z,98237.01
2018-01-14T01:19:32.532Z,98233.94
2018-01-14T01:22:00.798Z,98234.84
2018-01-14T01:24:29.811Z,98239.48
2018-01-14T01:26:58.847Z,98244.87
2018-01-14T01:29:27.107Z,98242.73
2018-01-14T01:31:56.138Z,98241.83
2018-01-14T01:34:24.387Z,98249.16
2018-01-14T01:36:52.647Z,98248.95
2018-01-14T01:39:20.894Z,98240.86
2018-01-14T01:41:49.160Z,98236.74
2018-01-14T01:44:18.172Z,98240.77
2018-01-14T01:46:47.208Z,98237.18
2018-01-14T01:49:15.452Z,98239.57
2018-01-14T01:51:43.736Z,98242.84
2018-01-14T01:54:11.995Z,98238.66
2018-01-14T01:56:40.363Z,98242.28
2018-01-14T01:59:08.767Z,98236.86
2018-01-14T02:01:37.057Z,98234.86
2018-01-14T02:04:05.321Z,98234.25
2018-01-14T02:06:33.571Z,98237.35
2018-01-14T02:09:01.840Z,98227.30
2018-01-14T02:11:30.103Z,98231.97
2018-01-14T02:13:58.383Z,98235.02
2018-01-14T02:16:26.634Z,98227.67
2018-01-14T02:18:54.908Z,98227.94
2018-01-14T02:21:23.154Z,98228.15
2018-01-14T02:23:51.415Z,98223.36
2018-01-14T02:26:20.422Z,98228.27
2018-01-14T02:28:49.463Z,98233.66
2018-01-14T02:31:17.718Z,98235.36
2018-01-14T02:33:45.987Z,98228.73
2018-01-14T02:36:14.240Z,98231.94
2018-01-14T02:38:42.614Z,98227.03
2018-01-14T02:41:10.908Z,98223.14
2018-01-14T02:43:39.239Z,98222.48
2018-01-14T02:46:07.524Z,98230.55
2018-01-14T02:48:35.795Z,98224.89
2018-01-14T02:51:04.047Z,98228.95
2018-01-14T02:53:33.075Z,98219.47
2018-01-14T02:56:01.331Z,98226.70
2018-01-14T02:58:30.364Z,98228.19
2018-01-14T03:00:58.636Z,98229.34
2018-01-14T03:03:27.672Z,98233.59
2018-01-14T03:05:55.927Z,98234.77
2018-01-14T03:08:24.210Z,98231.63
2018-01-14T03:10:53.244Z,98230.62
2018-01-14T03:13:21.530Z,98230.59
2018-01-14T03:15:50.539Z,98232.36
2018-01-14T03:18:18.807Z,98230.66
2018-01-14T03:20:47.825Z,98227.53
2018-01-14T03:23:16.091Z,98226.58
2018-01-14T03:25:44.336Z,98225.70
2018-01-14T03:28:12.602Z,98221.91
2018-01-14T03:30:41.687Z,98228.13
2018-01-14T03:33:10.859Z,98223.59
2018-01-14T03:35:39.392Z,98227.53
2018-01-14T03:38:07.669Z,98226.83
2018-01-14T03:40:35.942Z,98227.03
2018-01-14T03:43:04.192Z,98224.69
2018-01-14T03:45:32.452Z,98225.28
2018-01-14T03:48:01.471Z,98226.78
2018-01-14T03:50:30.490Z,98229.19
2018-01-14T03:52:58.752Z,98222.29
2018-01-14T03:55:27.034Z,98220.97
2018-01-14T03:57:55.971Z,98222.53
2018-01-14T04:00:24.226Z,98226.30
2018-01-14T04:02:52.476Z,98232.41
2018-01-14T04:05:20.749Z,98226.49
2018-01-14T04:07:49.004Z,98233.55
2018-01-14T04:10:17.271Z,98225.94
2018-01-14T04:12:45.527Z,98229.50
2018-01-14T04:15:13.815Z,98226.64
2018-01-14T04:17:42.136Z,98228.19
2018-01-14T04:20:11.197Z,98233.16
2018-01-14T04:22:39.506Z,98229.64
2018-01-14T04:25:07.814Z,98234.62
2018-01-14T04:27:36.061Z,98232.61
2018-01-14T04:30:04.346Z,98229.40
2018-01-14T04:32:33.359Z,98224.02
2018-01-14T04:35:01.622Z,98231.20
2018-01-14T04:37:30.639Z,98229.55
2018-01-14T04:39:59.671Z,98233.47
2018-01-14T04:42:27.966Z,98235.52
2018-01-14T04:44:56.254Z,98239.02
2018-01-14T04:47:24.531Z,98235.84
2018-01-14T04:49:52.803Z,98242.30
2018-01-14T04:52:21.819Z,98240.41
2018-01-14T04:54:50.531Z,98242.90
2018-01-14T04:57:18.788Z,98236.14
2018-01-14T04:59:47.802Z,98244.80
2018-01-14T05:02:16.833Z,98240.09
2018-01-14T05:04:45.109Z,98244.27
2018-01-14T05:07:13.397Z,98240.90
2018-01-14T05:09:41.696Z,98240.00
2018-01-14T05:12:09.991Z,98243.48
2018-01-14T05:14:38.263Z,98242.30
2018-01-14T05:17:07.312Z,98243.44
2018-01-14T05:19:37.823Z,98242.92
2018-01-14T05:22:06.095Z,98248.58
2018-01-14T05:24:34.335Z,98239.02
2018-01-14T05:27:02.599Z,98246.93
2018-01-14T05:29:30.855Z,98255.38
2018-01-14T05:31:59.888Z,98253.13
2018-01-14T05:34:28.155Z,98245.20
2018-01-14T05:36:57.289Z,98253.70
2018-01-14T05:39:26.775Z,98256.66
2018-01-14T05:41:56.223Z,98261.78
2018-01-14T05:44:24.621Z,98269.70
2018-01-14T05:46:53.351Z,98264.04
2018-01-14T05:49:23.686Z,98262.94
2018-01-14T05:51:51.973Z,98268.22
2018-01-14T05:54:20.266Z,98268.88
2018-01-14T05:56:48.524Z,98267.70
2018-01-14T05:59:16.782Z,98262.08
2018-01-14T06:01:45.815Z,98260.10
2018-01-14T06:04:14.151Z,98267.70
2018-01-14T06:06:42.433Z,98264.58
2018-01-14T06:09:10.963Z,98266.02
2018-01-14T06:11:40.014Z,98272.29
2018-01-14T06:14:08.360Z,98272.98
2018-01-14T06:16:37.430Z,98274.05
2018-01-14T06:19:05.827Z,98270.28
2018-01-14T06:21:34.212Z,98267.78
2018-01-14T06:24:02.452Z,98266.52
2018-01-14T06:26:31.487Z,98272.66
2018-01-14T06:28:59.739Z,98276.44
2018-01-14T06:31:28.801Z,98282.14
2018-01-14T06:33:57.092Z,98279.30
2018-01-14T06:36:25.344Z,98272.82
2018-01-14T06:38:53.630Z,98268.63
2018-01-14T06:41:21.888Z,98265.84
2018-01-14T06:43:50.156Z,98266.38
2018-01-14T06:46:19.187Z,98274.34
2018-01-14T06:48:47.461Z,98271.02
2018-01-14T06:51:15.719Z,98263.52
2018-01-14T06:53:44.026Z,98262.45
2018-01-14T06:56:12.309Z,98259.91
2018-01-14T06:58:40.582Z,98266.75
2018-01-14T07:01:09.632Z,98267.53
2018-01-14T07:03:37.945Z,98265.07
2018-01-14T07:06:06.329Z,98264.04
2018-01-14T07:08:34.597Z,98272.29
2018-01-14T07:11:02.846Z,98275.94
2018-01-14T07:13:31.112Z,98275.16
2018-01-14T07:15:59.358Z,98279.59
2018-01-14T07:18:27.641Z,98279.19
2018-01-14T07:20:55.894Z,98277.75
2018-01-14T07:23:24.177Z,98279.27
2018-01-14T07:25:52.426Z,98278.56
2018-01-14T07:28:20.700Z,98282.79
2018-01-14T07:30:48.956Z,98289.77
2018-01-14T07:33:17.215Z,98290.71
2018-01-14T07:35:46.237Z,98297.03
2018-01-14T07:38:14.558Z,98297.84
2018-01-14T07:40:42.820Z,98300.52
2018-01-14T07:43:11.124Z,98304.17
2018-01-14T07:45:39.390Z,98305.73
2018-01-14T07:48:09.140Z,98305.11
2018-01-14T07:50:37.452Z,98307.54
2018-01-14T07:53:05.727Z,98307.00
2018-01-14T07:55:33.991Z,98310.41
2018-01-14T07:58:02.243Z,98308.81
2018-01-14T08:00:30.505Z,98304.70
2018-01-14T08:02:58.768Z,98303.02
2018-01-14T08:05:27.134Z,98305.81
2018-01-14T08:07:55.355Z,98301.67
2018-01-14T08:10:23.648Z,98304.21
2018-01-14T08:12:51.928Z,98308.84
2018-01-14T08:15:20.176Z,98304.79
2018-01-14T08:17:49.178Z,98306.80
2018-01-14T08:20:18.206Z,98310.00
2018-01-14T08:22:46.463Z,98308.16
2018-01-14T08:25:14.750Z,98308.73
2018-01-14T08:27:43.044Z,98313.64
2018-01-14T08:30:11.349Z,98316.72
2018-01-14T08:32:39.628Z,98312.97
2018-01-14T08:35:07.974Z,98313.98
2018-01-14T08:37:36.279Z,98318.30
2018-01-14T08:40:04.553Z,98323.66
2018-01-14T08:42:32.791Z,98325.80
2018-01-14T08:45:01.827Z,98325.64
2018-01-14T08:47:30.076Z,98323.98
2018-01-14T08:49:58.371Z,98315.17
2018-01-14T08:52:26.687Z,98330.14
2018-01-14T08:54:54.954Z,98334.55
2018-01-14T08:57:23.978Z,98334.42
2018-01-14T08:59:53.007Z,98337.16
2018-01-14T09:02:21.258Z,98331.50
2018-01-14T09:04:50.294Z,98331.54
2018-01-14T09:07:18.559Z,98340.73
2018-01-14T09:09:47.579Z,98341.15
2018-01-14T09:12:16.606Z,98342.28
2018-01-14T09:14:45.138Z,98348.28
2018-01-14T09:17:13.624Z,98343.77
2018-01-14T09:19:41.923Z,98343.04
2018-01-14T09:22:10.230Z,98348.52
2018-01-14T09:24:39.356Z,98351.17
2018-01-14T09:27:08.408Z,98351.20
2018-01-14T09:29:37.445Z,98347.59
2018-01-14T09:32:07.244Z,98350.62
2018-01-14T09:34:36.292Z,98347.77
2018-01-14T09:37:05.319Z,98351.59
2018-01-14T09:39:33.639Z,98354.30
2018-01-14T09:42:02.241Z,98352.39
2018-01-14T09:44:30.482Z,98351.90
2018-01-14T09:46:59.509Z,98350.75
2018-01-14T09:49:27.779Z,98359.09
2018-01-14T09:51:56.824Z,98351.08
2018-01-14T09:54:25.072Z,98359.70
2018-01-14T09:56:54.094Z,98350.62
2018-01-14T09:59:22.347Z,98353.91
2018-01-14T10:01:50.617Z,98352.92
2018-01-14T10:04:19.028Z,98355.39
2018-01-14T10:06:48.788Z,98351.53
2018-01-14T10:09:17.047Z,98346.72
2018-01-14T10:11:45.312Z,98343.87
2018-01-14T10:14:13.608Z,98345.06
2018-01-14T10:16:41.951Z,98341.38
2018-01-14T10:19:10.305Z,98340.06
2018-01-14T10:21:38.603Z,98343.05
2018-01-14T10:24:06.884Z,98333.03
2018-01-14T10:26:35.940Z,98335.33
2018-01-14T10:29:04.190Z,98350.94
2018-01-14T10:31:33.229Z,98344.06
2018-01-14T10:34:01.467Z,98337.38
2018-01-14T10:36:29.738Z,98328.62
2018-01-14T10:38:58.032Z,98326.33
2018-01-14T10:41:26.286Z,98328.44
2018-01-14T10:43:54.549Z,98321.51
2018-01-14T10:46:23.689Z,98325.74
2018-01-14T10:48:51.933Z,98319.69
2018-01-14T10:51:20.975Z,98318.13
2018-01-14T10:53:49.229Z,98318.67
2018-01-14T10:56:17.480Z,98312.88
2018-01-14T10:58:45.747Z,98305.12
2018-01-14T11:01:14.039Z,98301.76
2018-01-14T11:03:42.318Z,98303.27
2018-01-14T11:06:10.644Z,98298.95
2018-01-14T11:08:38.920Z,98304.83
2018-01-14T11:11:07.171Z,98297.08
2018-01-14T11:13:35.441Z,98302.77
2018-01-14T11:16:04.455Z,98297.72
2018-01-14T11:18:33.489Z,98302.20
2018-01-14T11:21:01.753Z,98298.09
2018-01-14T11:23:30.778Z,98294.06
2018-01-14T11:25:59.047Z,98288.94
2018-01-14T11:28:38.925Z,98291.42
2018-01-14T11:31:07.202Z,98295.68
2018-01-14T11:33:36.823Z,98291.88
2018-01-14T11:36:05.866Z,98288.78
2018-01-14T11:38:34.126Z,98286.58
2018-01-14T11:41:02.379Z,98283.58
2018-01-14T11:43:30.668Z,98277.92
2018-01-14T11:45:58.935Z,98283.88
2018-01-14T11:48:27.214Z,98275.52
2018-01-14T11:50:55.495Z,98270.41
2018-01-14T11:53:23.781Z,98268.69
2018-01-14T11:55:52.062Z,98274.18
2018-01-14T11:58:20.332Z,98270.58
2018-01-14T12:00:49.349Z,98272.16
2018-01-14T12:03:17.624Z,98262.16
2018-01-14T12:05:46.747Z,98260.48
2018-01-14T12:08:15.860Z,98263.23
2018-01-14T12:10:44.121Z,98260.61
2018-01-14T12:13:12.416Z,98262.35
2018-01-14T12:15:41.428Z,98258.98
2018-01-14T12:18:10.528Z,98259.23
2018-01-14T12:20:39.671Z,98259.47
2018-01-14T12:23:07.987Z,98260.08
2018-01-14T12:25:36.240Z,98262.66
2018-01-14T12:28:04.538Z,98257.05
2018-01-14T12:30:32.802Z,98257.79
2018-01-14T12:33:09.193Z,98256.80
2018-01-14T12:35:37.521Z,98258.74
2018-01-14T12:38:05.763Z,98258.20
2018-01-14T12:40:34.812Z,98261.02
2018-01-14T12:43:03.098Z,98256.03
2018-01-14T12:45:31.414Z,98250.08
2018-01-14T12:47:59.667Z,98267.48
2018-01-14T12:50:28.008Z,98247.32
2018-01-14T12:52:56.268Z,98251.08
2018-01-14T12:55:24.547Z,98251.94
2018-01-14T12:57:52.801Z,98248.31
2018-01-14T13:00:21.075Z,98252.86
2018-01-14T13:02:50.086Z,98255.19
2018-01-14T13:05:19.232Z,98254.50
2018-01-14T13:07:47.486Z,98256.27
2018-01-14T13:10:16.566Z,98250.36
2018-01-14T13:12:44.882Z,98246.61
2018-01-14T13:15:14.131Z,98252.72
2018-01-14T13:17:42.412Z,98252.76
2018-01-14T13:20:10.726Z,98251.23
2018-01-14T13:22:39.032Z,98255.23
2018-01-14T13:25:07.308Z,98246.52
2018-01-14T13:27:35.555Z,98256.34
2018-01-14T13:30:03.856Z,98255.11
2018-01-14T13:32:32.120Z,98259.36
2018-01-14T13:35:01.179Z,98256.20
2018-01-14T13:37:29.434Z,98256.99
2018-01-14T13:39:57.747Z,98251.03
2018-01-14T13:42:26.037Z,98253.72
2018-01-14T13:44:54.308Z,98254.37
2018-01-14T13:47:22.552Z,98261.17
2018-01-14T13:49:50.811Z,98260.06
2018-01-14T13:52:19.114Z,98266.96
2018-01-14T13:54:47.397Z,98263.37
2018-01-14T13:57:15.659Z,98257.38
2018-01-14T13:59:43.944Z,98261.38
2018-01-14T14:02:12.224Z,98256.85
2018-01-14T14:04:40.503Z,98258.84
2018-01-14T14:07:08.763Z,98252.55
2018-01-14T14:09:37.017Z,98259.91
2018-01-14T14:12:06.086Z,98262.58
2018-01-14T14:14:35.147Z,98273.02
2018-01-14T14:17:03.416Z,98268.74
2018-01-14T14:19:31.677Z,98270.93
2018-01-14T14:21:59.952Z,98273.77
2018-01-14T14:24:28.976Z,98275.84
2018-01-14T14:26:57.270Z,98281.16
2018-01-14T14:29:25.574Z,98281.55
2018-01-14T14:31:53.862Z,98284.23
2018-01-14T14:34:22.537Z,98278.30
2018-01-14T14:36:50.856Z,98277.95
2018-01-14T14:39:19.121Z,98273.61
2018-01-14T14:41:47.371Z,98274.38
2018-01-14T14:44:15.635Z,98274.34
2018-01-14T14:46:44.677Z,98268.74
2018-01-14T14:49:12.960Z,98279.56
2018-01-14T14:51:41.270Z,98276.20
2018-01-14T14:54:09.518Z,98267.61
2018-01-14T14:56:37.797Z,98282.22
2018-01-14T14:59:06.059Z,98279.64
2018-01-14T15:01:34.340Z,98282.72
2018-01-14T15:04:02.599Z,98289.58
2018-01-14T15:06:30.842Z,98292.27
2018-01-14T15:08:59.106Z,98290.25
2018-01-14T15:11:27.449Z,98292.06
2018-01-14T15:13:55.721Z,98288.32
2018-01-14T15:16:24.047Z,98291.53
2018-01-14T15:18:52.341Z,98296.01
2018-01-14T15:21:20.628Z,98290.30
2018-01-14T15:23:48.916Z,98293.55
2018-01-14T15:26:17.188Z,98292.48
2018-01-14T15:28:45.436Z,98288.31
2018-01-14T15:31:13.714Z,98298.17
2018-01-14T15:33:42.015Z,98293.16
2018-01-14T15:36:10.324Z,98296.99
2018-01-14T15:38:38.638Z,98296.86
2018-01-14T15:41:08.480Z,98305.53
2018-01-14T15:43:36.735Z,98305.36
2018-01-14T15:46:05.088Z,98302.84
2018-01-14T15:48:34.125Z,98310.84
2018-01-14T15:51:02.373Z,98308.16
2018-01-14T15:53:31.399Z,98300.03
2018-01-14T15:55:59.691Z,98308.36
2018-01-14T15:58:27.960Z,98309.34
2018-01-14T16:00:56.231Z,98306.23
2018-01-14T16:03:24.505Z,98304.81
2018-01-14T16:05:52.756Z,98315.43
2018-01-14T16:08:21.647Z,98306.16
2018-01-14T16:10:49.971Z,98311.30
2018-01-14T16:13:18.223Z,98311.78
2018-01-14T16:15:46.471Z,98312.16
2018-01-14T16:18:14.731Z,98302.63
2018-01-14T16:20:43.022Z,98304.66
2018-01-14T16:23:11.339Z,98308.92
2018-01-14T16:25:39.626Z,98310.28
2018-01-14T16:28:07.909Z,98314.83
2018-01-14T16:30:36.924Z,98305.03
2018-01-14T16:33:05.178Z,98320.51
2018-01-14T16:35:33.436Z,98322.81
2018-01-14T16:38:01.727Z,98324.16
2018-01-14T16:40:29.970Z,98316.84
2018-01-14T16:42:58.271Z,98315.50
2018-01-14T16:45:26.576Z,98318.61
2018-01-14T16:47:55.647Z,98323.33
2018-01-14T16:50:23.928Z,98325.21
2018-01-14T16:52:52.180Z,98319.71
2018-01-14T16:55:20.455Z,98322.95
2018-01-14T16:57:49.471Z,98319.05
2018-01-14T17:00:17.719Z,98325.92
2018-01-14T17:02:45.976Z,98323.53
2018-01-14T17:05:14.254Z,98322.13
2018-01-14T17:07:42.550Z,98326.67
2018-01-14T17:10:10.960Z,98327.95
2018-01-14T17:12:40.012Z,98329.12
2018-01-14T17:15:09.330Z,98328.96
2018-01-14T17:17:38.351Z,98331.34
2018-01-14T17:20:06.861Z,98320.48
2018-01-14T17:22:35.336Z,98324.36
2018-01-14T17:25:04.414Z,98321.45
2018-01-14T17:27:32.651Z,98326.81
2018-01-14T17:30:00.928Z,98330.73
2018-01-14T17:32:29.189Z,98333.41
2018-01-14T17:34:58.465Z,98330.82
2018-01-14T17:37:26.811Z,98328.77
2018-01-14T17:39:55.159Z,98339.63
2018-01-14T17:42:23.390Z,98328.61
2018-01-14T17:44:51.710Z,98337.37
2018-01-14T17:47:19.975Z,98333.61
2018-01-14T17:49:48.321Z,98337.84
2018-01-14T17:52:16.704Z,98338.33
2018-01-14T17:54:44.987Z,98340.20
2018-01-14T17:57:13.306Z,98342.03
2018-01-14T17:59:41.634Z,98345.34
2018-01-14T18:02:09.905Z,98347.28
2018-01-14T18:04:38.946Z,98347.70
2018-01-14T18:07:07.312Z,98342.73
2018-01-14T18:09:35.588Z,98340.45
2018-01-14T18:12:04.061Z,98336.52
2018-01-14T18:14:32.353Z,98334.75
2018-01-14T18:17:02.193Z,98337.78
2018-01-14T18:19:31.273Z,98342.11
2018-01-14T18:21:59.772Z,98344.40
2018-01-14T18:24:28.064Z,98330.74
2018-01-14T18:26:56.346Z,98334.49
2018-01-14T18:29:24.954Z,98335.96
2018-01-14T18:31:53.363Z,98336.95
2018-01-14T18:34:22.385Z,98333.91
2018-01-14T18:36:50.640Z,98340.65
2018-01-14T18:39:18.923Z,98352.26
2018-01-14T18:41:47.404Z,98352.03
2018-01-14T18:44:15.651Z,98349.42
2018-01-14T18:46:43.944Z,98351.38
2018-01-14T18:49:12.225Z,98348.11
2018-01-14T18:51:40.559Z,98341.57
2018-01-14T18:54:09.661Z,98344.00
2018-01-14T18:56:38.798Z,98348.42
2018-01-14T18:59:07.096Z,98344.19
2018-01-14T19:01:35.382Z,98346.81
2018-01-14T19:04:03.754Z,98345.42
2018-01-14T19:06:32.053Z,98342.61
2018-01-14T19:09:00.381Z,98341.66
2018-01-14T19:11:28.767Z,98346.06
2018-01-14T19:13:57.091Z,98343.30
2018-01-14T19:16:25.437Z,98340.17
2018-01-14T19:18:53.753Z,98342.22
2018-01-14T19:21:22.078Z,98340.27
2018-01-14T19:23:50.329Z,98350.89
2018-01-14T19:26:18.664Z,98354.89
2018-01-14T19:28:46.919Z,98355.97
2018-01-14T19:31:15.209Z,98356.61
2018-01-14T19:33:43.547Z,98351.86
2018-01-14T19:36:11.895Z,98358.66
2018-01-14T19:38:40.165Z,98361.61
2018-01-14T19:41:08.536Z,98366.51
2018-01-14T19:43:37.627Z,98359.38
2018-01-14T19:46:05.955Z,98362.09
2018-01-14T19:48:34.241Z,98359.89
2018-01-14T19:51:02.562Z,98354.31
2018-01-14T19:53:30.845Z,98355.14
2018-01-14T19:55:59.153Z,98361.02
2018-01-14T19:58:27.506Z,98363.63
2018-01-14T20:00:55.817Z,98367.73
2018-01-14T20:03:24.118Z,98369.13
2018-01-14T20:05:52.426Z,98368.64
2018-01-14T20:08:20.738Z,98367.56
2018-01-14T20:10:49.043Z,98364.13
2018-01-14T20:13:18.131Z,98362.73
2018-01-14T20:15:46.453Z,98371.89
2018-01-14T20:18:15.544Z,98369.69
2018-01-14T20:20:44.612Z,98364.64
2018-01-14T20:23:13.061Z,98367.97
2018-01-14T20:25:41.353Z,98371.18
2018-01-14T20:28:10.601Z,98372.49
2018-01-14T20:30:38.979Z,98369.95
2018-01-14T20:33:07.365Z,98369.87
2018-01-14T20:35:35.727Z,98370.18
2018-01-14T20:38:04.852Z,98362.73
2018-01-14T20:40:33.163Z,98363.00
2018-01-14T20:43:01.480Z,98358.09
2018-01-14T20:45:29.830Z,98359.70
2018-01-14T20:47:58.096Z,98359.30
2018-01-14T20:50:26.383Z,98357.99
2018-01-14T20:52:55.509Z,98361.77
2018-01-14T20:55:23.829Z,98352.94
2018-01-14T20:57:52.097Z,98356.20
2018-01-14T21:00:20.424Z,98357.09
2018-01-14T21:02:48.742Z,98353.77
2018-01-14T21:05:17.042Z,98352.87
2018-01-14T21:07:46.126Z,98354.73
2018-01-14T21:10:14.442Z,98349.23
2018-01-14T21:12:43.546Z,98350.66
2018-01-14T21:15:12.596Z,98356.13
2018-01-14T21:17:40.984Z,98353.69
2018-01-14T21:20:09.349Z,98345.31
2018-01-14T21:22:38.588Z,98350.66
2018-01-14T21:25:06.898Z,98357.09
2018-01-14T21:27:35.160Z,98360.30
2018-01-14T21:30:03.478Z,98362.33
2018-01-14T21:32:31.762Z,98363.97
2018-01-14T21:35:00.095Z,98363.63
2018-01-14T21:37:28.482Z,98367.25
2018-01-14T21:39:57.562Z,98362.02
2018-01-14T21:42:25.971Z,98365.84
2018-01-14T21:44:54.280Z,98362.41
2018-01-14T21:47:23.338Z,98363.22
2018-01-14T21:49:51.742Z,98360.30
2018-01-14T21:52:20.050Z,98364.94
2018-01-14T21:54:48.318Z,98364.45
2018-01-14T21:57:16.608Z,98366.59
2018-01-14T21:59:44.917Z,98369.05
2018-01-14T22:02:13.261Z,98365.28
2018-01-14T22:04:41.626Z,98361.36
2018-01-14T22:07:10.674Z,98360.45
2018-01-14T22:09:39.036Z,98359.64
2018-01-14T22:12:07.434Z,98352.53
2018-01-14T22:14:35.771Z,98356.45
2018-01-14T22:17:04.038Z,98346.48
2018-01-14T22:19:32.324Z,98352.45
2018-01-14T22:22:00.630Z,98353.91
2018-01-14T22:24:28.977Z,98354.06
2018-01-14T22:26:57.255Z,98354.17
2018-01-14T22:29:26.363Z,98348.20
2018-01-14T22:31:55.428Z,98350.81
2018-01-14T22:34:23.696Z,98342.55
2018-01-14T22:36:51.943Z,98350.64
2018-01-14T22:39:21.398Z,98344.42
2018-01-14T22:41:49.647Z,98339.59
2018-01-14T22:44:18.688Z,98330.44
2018-01-14T22:46:46.967Z,98340.98
2018-01-14T22:49:15.350Z,98334.22
2018-01-14T22:51:44.377Z,98340.42
2018-01-14T22:54:12.672Z,98333.88
2018-01-14T22:56:41.756Z,98340.91
2018-01-14T22:59:10.044Z,98338.89
2018-01-14T23:01:38.486Z,98330.78
2018-01-14T23:04:06.758Z,98327.20
2018-01-14T23:06:35.050Z,98313.70
2018-01-14T23:09:04.097Z,98312.14
2018-01-14T23:11:33.154Z,98309.67
2018-01-14T23:14:01.402Z,98314.67
2018-01-14T23:16:29.672Z,98314.59
2018-01-14T23:18:57.934Z,98303.73
2018-01-14T23:21:26.223Z,98304.55
2018-01-14T23:23:54.487Z,98307.80
2018-01-14T23:26:22.765Z,98314.11
2018-01-14T23:28:51.015Z,98307.88
2018-01-14T23:31:19.312Z,98305.11
2018-01-14T23:33:47.564Z,98298.98
2018-01-14T23:36:15.844Z,98301.33
2018-01-14T23:38:44.105Z,98302.16
2018-01-14T23:41:12.402Z,98301.18
2018-01-14T23:43:40.672Z,98306.00
2018-01-14T23:46:09.744Z,98305.03
2018-01-14T23:48:38.065Z,98302.83
2018-01-14T23:51:06.346Z,98295.69
2018-01-14T23:53:35.377Z,98303.47
2018-01-14T23:56:03.651Z,98293.98
2018-01-14T23:58:32.668Z,98297.19
